Time;durP1;ratioP1;P1;durP2;ratioP2;P2;SDS_P1;SDS_P2;PMS_P1;PMS_P2;Temp;Humidity;BMP_temperature;BMP_pressure;BME280_temperature;BME280_humidity;BME280_pressure;Samples;Min_cycle;Max_cycle;Signal;HPM_P1;HPM_P2
2022/07/20 00:00:29;;;;;;;9.27;3.22;;;26.00;61.50;;;;;;5045838;28;20515;-60
2022/07/20 00:02:55;;;;;;;5.65;2.40;;;26.00;61.80;;;;;;5046914;28;20056;-60
2022/07/20 00:05:21;;;;;;;2.53;2.15;;;25.80;62.20;;;;;;5046116;28;20514;-60
2022/07/20 00:07:46;;;;;;;5.78;2.60;;;25.70;62.30;;;;;;5046583;28;20044;-60
2022/07/20 00:12:56;;;;;;;4.13;2.80;;;25.70;62.80;;;;;;5045773;28;20439;-60
2022/07/20 00:15:22;;;;;;;11.52;2.30;;;25.60;63.10;;;;;;5047086;28;20059;-60
2022/07/20 00:17:47;;;;;;;3.50;2.88;;;25.50;63.20;;;;;;5046432;28;20045;-60
2022/07/20 00:20:13;;;;;;;6.82;2.53;;;25.50;63.60;;;;;;5046060;28;20041;-60
2022/07/20 00:22:38;;;;;;;4.05;2.55;;;25.50;64.10;;;;;;5050716;28;20052;-60
2022/07/20 00:25:04;;;;;;;10.65;2.95;;;25.40;64.50;;;;;;5050348;28;20403;-60
2022/07/20 00:27:30;;;;;;;3.85;2.28;;;25.30;64.60;;;;;;5049496;28;20110;-60
2022/07/20 00:29:56;;;;;;;3.95;2.70;;;25.30;65.00;;;;;;5049962;28;20518;-60
2022/07/20 00:32:21;;;;;;;3.92;2.80;;;25.20;65.20;;;;;;5050221;28;20056;-60
2022/07/20 00:34:47;;;;;;;7.60;2.53;;;25.10;65.20;;;;;;5049538;28;20591;-60
2022/07/20 00:37:12;;;;;;;5.75;2.70;;;25.00;65.10;;;;;;5050034;28;20500;-60
2022/07/20 00:39:38;;;;;;;3.08;2.15;;;25.00;65.20;;;;;;5049885;28;20488;-60
2022/07/20 00:42:04;;;;;;;5.35;2.53;;;24.90;65.50;;;;;;5048882;28;20476;-60
2022/07/20 00:44:30;;;;;;;2.50;2.25;;;24.90;65.50;;;;;;5049747;28;20037;-60
2022/07/20 00:46:55;;;;;;;3.95;2.70;;;24.90;65.90;;;;;;5049404;28;20106;-60
2022/07/20 00:49:21;;;;;;;4.22;2.38;;;24.80;66.00;;;;;;5049599;28;20559;-60
2022/07/20 00:51:48;;;;;;;4.43;2.83;;;24.80;66.40;;;;;;5049323;28;20059;-60
2022/07/20 00:54:14;;;;;;;4.97;2.95;;;24.70;66.50;;;;;;5049702;28;20182;-60
2022/07/20 00:56:40;;;;;;;7.97;2.90;;;24.70;66.80;;;;;;5048739;28;20099;-60
2022/07/20 00:59:08;;;;;;;4.22;2.50;;;24.60;67.10;;;;;;5049237;28;20056;-60
2022/07/20 01:01:34;;;;;;;4.20;2.60;;;24.50;67.20;;;;;;5048691;28;20049;-60
2022/07/20 01:04:01;;;;;;;6.65;2.50;;;24.50;67.30;;;;;;5049090;28;20103;-60
2022/07/20 01:06:27;;;;;;;5.35;3.00;;;24.40;67.50;;;;;;5049263;28;20041;-60
2022/07/20 01:08:53;;;;;;;5.10;2.45;;;24.40;67.20;;;;;;5048867;28;20052;-60
2022/07/20 01:11:19;;;;;;;3.30;2.53;;;24.30;67.90;;;;;;5049019;28;20045;-60
2022/07/20 01:13:45;;;;;;;4.30;2.22;;;24.30;68.00;;;;;;5049345;28;20041;-60
2022/07/20 01:16:11;;;;;;;5.47;3.00;;;24.20;67.90;;;;;;5048361;28;20047;-60
2022/07/20 01:18:36;;;;;;;3.72;2.78;;;24.20;68.10;;;;;;5049152;28;20509;-60
2022/07/20 01:21:07;;;;;;;2.45;2.25;;;24.20;68.80;;;;;;5049182;28;20136;-60
2022/07/20 01:23:33;;;;;;;6.97;2.70;;;24.10;68.90;;;;;;5048168;28;20495;-60
2022/07/20 01:26:00;;;;;;;3.78;2.13;;;24.10;69.00;;;;;;5048870;28;20049;-60
2022/07/20 01:28:28;;;;;;;7.35;3.00;;;24.10;68.70;;;;;;5048623;28;20045;-60
2022/07/20 01:30:53;;;;;;;2.80;2.40;;;24.00;68.50;;;;;;5048640;28;20044;-60
2022/07/20 01:33:19;;;;;;;3.55;2.70;;;24.00;69.10;;;;;;5046972;28;20139;-60
2022/07/20 01:35:45;;;;;;;2.92;2.50;;;24.00;68.40;;;;;;5048711;28;20151;-60
2022/07/20 01:38:11;;;;;;;4.85;2.97;;;23.90;68.00;;;;;;5047767;28;20395;-60
2022/07/20 01:40:37;;;;;;;2.83;2.63;;;23.90;68.00;;;;;;5048524;28;20049;-61
2022/07/20 01:43:02;;;;;;;3.35;2.42;;;23.90;68.40;;;;;;5047913;28;20045;-61
2022/07/20 01:45:28;;;;;;;2.42;2.15;;;23.90;68.00;;;;;;5047999;28;20378;-61
2022/07/20 01:47:54;;;;;;;7.18;3.10;;;23.90;67.80;;;;;;5048578;28;20041;-61
2022/07/20 01:50:20;;;;;;;3.10;2.75;;;23.90;68.00;;;;;;5048702;28;20085;-60
2022/07/20 01:52:45;;;;;;;5.72;2.38;;;23.90;68.30;;;;;;5047667;28;20049;-60
2022/07/20 01:55:11;;;;;;;3.38;2.42;;;23.90;68.90;;;;;;5048223;28;20080;-60
2022/07/20 01:57:37;;;;;;;6.53;2.75;;;23.90;69.90;;;;;;5047869;28;20060;-60
2022/07/20 02:00:09;;;;;;;4.28;2.53;;;23.80;69.50;;;;;;5047385;28;20124;-60
2022/07/20 02:02:34;;;;;;;3.63;2.80;;;23.80;69.70;;;;;;5048129;28;20546;-60
2022/07/20 02:05:00;;;;;;;4.80;3.45;;;23.70;69.70;;;;;;5047055;28;20052;-60
2022/07/20 02:07:25;;;;;;;3.38;2.72;;;23.70;70.30;;;;;;5047967;28;20255;-60
2022/07/20 02:09:51;;;;;;;5.07;3.03;;;23.60;69.50;;;;;;5048131;28;20044;-60
2022/07/20 02:12:19;;;;;;;3.30;2.90;;;23.70;69.00;;;;;;5047425;28;20041;-60
2022/07/20 02:14:45;;;;;;;3.20;2.90;;;23.70;69.20;;;;;;5047768;28;20136;-60
2022/07/20 02:17:10;;;;;;;5.95;2.88;;;23.70;68.90;;;;;;5047928;28;20171;-60
2022/07/20 02:19:36;;;;;;;3.28;2.42;;;23.70;68.60;;;;;;5046969;28;20040;-60
2022/07/20 02:22:01;;;;;;;4.38;2.55;;;23.70;68.70;;;;;;5047353;28;20037;-60
2022/07/20 02:24:27;;;;;;;5.07;2.78;;;23.70;68.50;;;;;;5047491;28;20073;-60
2022/07/20 02:26:53;;;;;;;3.65;2.15;;;23.70;68.50;;;;;;5047095;28;20415;-60
2022/07/20 02:29:18;;;;;;;2.85;2.17;;;23.70;68.70;;;;;;5047699;28;20041;-60
2022/07/20 02:31:44;;;;;;;3.20;2.90;;;23.60;68.40;;;;;;5047383;28;20052;-60
2022/07/20 02:34:10;;;;;;;4.32;2.83;;;23.50;68.20;;;;;;5046212;28;20037;-60
2022/07/20 02:36:35;;;;;;;5.05;2.60;;;23.60;68.60;;;;;;5047495;28;20653;-60
2022/07/20 02:39:03;;;;;;;4.65;2.90;;;23.60;68.50;;;;;;5047134;28;20133;-60
2022/07/20 02:41:29;;;;;;;4.85;2.63;;;23.50;68.50;;;;;;5046458;28;20049;-60
2022/07/20 02:43:55;;;;;;;9.95;3.05;;;23.50;68.60;;;;;;5046942;28;20048;-60
2022/07/20 02:46:20;;;;;;;2.78;2.58;;;23.50;69.00;;;;;;5047767;28;20389;-60
2022/07/20 02:48:46;;;;;;;7.47;2.85;;;23.50;69.00;;;;;;5046555;28;20040;-60
2022/07/20 02:51:11;;;;;;;5.20;2.70;;;23.40;69.30;;;;;;5047118;28;20076;-60
2022/07/20 02:53:37;;;;;;;5.47;2.70;;;23.30;69.20;;;;;;5047107;28;20412;-60
2022/07/20 02:56:03;;;;;;;3.65;2.47;;;23.30;69.40;;;;;;5045898;28;20099;-60
2022/07/20 02:58:28;;;;;;;10.10;2.80;;;23.30;69.80;;;;;;5047003;28;20044;-60
2022/07/20 03:00:54;;;;;;;4.82;2.53;;;23.20;70.40;;;;;;5046864;28;20056;-60
2022/07/20 03:03:20;;;;;;;5.25;2.97;;;23.20;71.10;;;;;;5046685;28;20048;-60
2022/07/20 03:05:45;;;;;;;5.32;2.88;;;23.20;71.60;;;;;;5046716;28;20041;-60
2022/07/20 03:08:11;;;;;;;4.82;2.72;;;23.10;72.00;;;;;;5045795;28;20045;-60
2022/07/20 03:10:36;;;;;;;3.33;2.78;;;23.10;72.60;;;;;;5046464;28;20463;-60
2022/07/20 03:13:03;;;;;;;5.00;2.38;;;23.10;72.90;;;;;;5061979;28;20052;-60
2022/07/20 03:15:28;;;;;;;6.03;3.38;;;23.00;73.50;;;;;;5046040;28;20085;-60
2022/07/20 03:17:54;;;;;;;6.32;2.67;;;23.00;73.90;;;;;;5046718;28;20084;-60
2022/07/20 03:20:26;;;;;;;2.97;2.65;;;22.90;74.00;;;;;;5047225;28;20075;-60
2022/07/20 03:22:52;;;;;;;;;;;22.90;74.30;;;;;;5046404;28;20040;-60
2022/07/20 03:25:18;;;;;;;2.85;2.50;;;22.80;74.50;;;;;;5046344;28;20330;-61
2022/07/20 03:27:44;;;;;;;7.22;3.05;;;22.70;74.80;;;;;;5046457;28;20163;-60
2022/07/20 03:30:10;;;;;;;7.05;3.08;;;22.70;74.60;;;;;;5045421;28;20056;-60
2022/07/20 03:32:36;;;;;;;5.72;2.80;;;22.70;74.90;;;;;;5046280;28;20052;-60
2022/07/20 03:35:03;;;;;;;3.22;2.90;;;22.70;75.00;;;;;;5045961;28;20048;-60
2022/07/20 03:37:29;;;;;;;4.22;2.83;;;22.60;75.20;;;;;;5045528;28;20052;-60
2022/07/20 03:39:54;;;;;;;4.35;2.85;;;22.60;75.60;;;;;;5046071;28;20049;-60
2022/07/20 03:42:20;;;;;;;3.60;2.60;;;22.60;75.90;;;;;;5047078;28;20079;-60
2022/07/20 03:44:46;;;;;;;3.90;2.90;;;22.50;76.30;;;;;;5045071;28;20511;-60
2022/07/20 03:47:11;;;;;;;3.88;2.90;;;22.50;76.20;;;;;;5046389;28;20049;-60
2022/07/20 03:49:37;;;;;;;4.07;2.72;;;22.50;76.70;;;;;;5046240;28;20048;-60
2022/07/20 03:52:03;;;;;;;2.72;2.53;;;22.50;76.60;;;;;;5044138;28;20045;-60
2022/07/20 03:54:28;;;;;;;4.05;2.72;;;22.40;76.60;;;;;;5046407;28;20194;-60
2022/07/20 03:56:54;;;;;;;3.83;2.38;;;22.50;76.90;;;;;;5049550;28;20368;-60
2022/07/20 03:59:20;;;;;;;2.88;2.67;;;22.40;77.00;;;;;;5048668;28;20045;-60
2022/07/20 04:01:45;;;;;;;3.97;2.60;;;22.50;77.00;;;;;;5050257;28;20045;-60
2022/07/20 04:04:11;;;;;;;9.70;3.30;;;22.40;77.00;;;;;;5050215;28;20083;-60
2022/07/20 04:06:37;;;;;;;4.78;2.55;;;22.40;77.40;;;;;;5049391;28;20052;-60
2022/07/20 04:09:03;;;;;;;4.38;2.53;;;22.40;77.70;;;;;;5049604;28;20621;-60
2022/07/20 04:11:28;;;;;;;4.03;2.65;;;22.40;78.20;;;;;;5049452;28;20047;-60
2022/07/20 04:13:54;;;;;;;3.70;2.70;;;22.30;78.40;;;;;;5050342;28;20041;-60
2022/07/20 04:16:20;;;;;;;3.92;2.95;;;22.30;79.80;;;;;;5050408;28;20032;-60
2022/07/20 04:18:45;;;;;;;5.07;2.58;;;22.20;80.90;;;;;;5049111;28;20041;-60
2022/07/20 04:21:11;;;;;;;8.13;2.88;;;22.20;81.60;;;;;;5049961;28;20442;-60
2022/07/20 04:23:37;;;;;;;4.32;2.90;;;22.10;82.80;;;;;;5049784;28;20072;-60
2022/07/20 04:26:02;;;;;;;3.60;2.60;;;22.10;83.30;;;;;;5048976;28;20084;-60
2022/07/20 04:28:28;;;;;;;4.43;2.65;;;22.10;83.10;;;;;;5050002;28;20037;-60
2022/07/20 04:30:54;;;;;;;7.20;2.65;;;22.10;83.90;;;;;;5049789;28;20098;-61
2022/07/20 04:33:20;;;;;;;4.25;2.60;;;22.10;83.60;;;;;;5049434;28;20384;-60
2022/07/20 04:35:46;;;;;;;7.82;2.97;;;22.10;83.40;;;;;;5049411;28;20450;-60
2022/07/20 04:38:17;;;;;;;4.80;2.88;;;22.20;83.50;;;;;;5049387;28;20044;-60
2022/07/20 04:40:43;;;;;;;5.35;2.80;;;22.10;83.60;;;;;;5048911;28;20055;-60
2022/07/20 04:43:09;;;;;;;4.07;2.88;;;22.10;83.40;;;;;;5049077;28;20553;-60
2022/07/20 04:45:35;;;;;;;7.32;3.05;;;22.10;82.90;;;;;;5049413;28;20045;-60
2022/07/20 04:48:00;;;;;;;5.78;2.90;;;22.10;83.30;;;;;;5048316;28;20110;-60
2022/07/20 04:50:26;;;;;;;5.70;2.97;;;22.20;83.00;;;;;;5049244;28;20049;-60
2022/07/20 04:52:52;;;;;;;4.15;2.70;;;22.20;83.20;;;;;;5049885;28;20041;-60
2022/07/20 04:55:17;;;;;;;5.07;2.75;;;22.20;83.00;;;;;;5048594;28;20045;-60
2022/07/20 04:57:43;;;;;;;4.68;3.33;;;22.20;82.80;;;;;;5049139;28;20492;-60
2022/07/20 05:00:09;;;;;;;7.80;2.65;;;22.20;83.10;;;;;;5049024;28;20056;-60
2022/07/20 05:02:35;;;;;;;5.88;2.95;;;22.20;83.80;;;;;;5048845;28;20095;-60
2022/07/20 05:05:00;;;;;;;3.17;2.88;;;22.30;83.70;;;;;;5048953;28;20392;-60
2022/07/20 05:07:26;;;;;;;10.25;2.95;;;22.30;84.60;;;;;;5048758;28;20080;-60
2022/07/20 05:09:52;;;;;;;7.25;3.05;;;22.30;85.60;;;;;;5048598;28;20091;-60
2022/07/20 05:12:17;;;;;;;5.28;3.08;;;22.30;86.80;;;;;;5049137;28;20077;-60
2022/07/20 05:14:43;;;;;;;6.57;2.90;;;22.20;87.90;;;;;;5048425;28;20368;-60
2022/07/20 05:17:08;;;;;;;7.30;3.28;;;22.30;89.30;;;;;;5049272;28;20041;-60
2022/07/20 05:19:34;;;;;;;5.22;3.03;;;22.30;89.90;;;;;;5048714;28;20063;-60
2022/07/20 05:21:59;;;;;;;5.70;3.30;;;22.30;90.40;;;;;;5048082;28;20041;-60
2022/07/20 05:24:25;;;;;;;3.00;2.80;;;22.30;91.00;;;;;;5048847;28;20510;-60
2022/07/20 05:26:51;;;;;;;5.15;3.17;;;22.30;92.00;;;;;;5048926;28;20049;-60
2022/07/20 05:29:17;;;;;;;8.75;3.17;;;22.40;92.20;;;;;;5048157;28;20068;-60
2022/07/20 05:31:42;;;;;;;5.05;2.90;;;22.40;92.50;;;;;;5048862;28;20135;-60
2022/07/20 05:34:08;;;;;;;5.68;3.00;;;22.50;92.80;;;;;;5048160;28;20562;-60
2022/07/20 05:36:34;;;;;;;5.28;2.75;;;22.60;93.00;;;;;;5047757;28;20041;-60
2022/07/20 05:39:00;;;;;;;5.03;3.30;;;22.60;92.80;;;;;;5048528;28;20049;-60
2022/07/20 05:41:25;;;;;;;4.88;2.88;;;22.60;93.10;;;;;;5048365;28;20770;-60
2022/07/20 05:43:51;;;;;;;5.50;3.55;;;22.70;93.60;;;;;;5048128;28;20044;-59
2022/07/20 05:46:16;;;;;;;4.03;2.90;;;22.80;93.50;;;;;;5048227;28;20052;-60
2022/07/20 05:48:42;;;;;;;5.10;3.25;;;22.80;93.80;;;;;;5048341;28;20037;-60
2022/07/20 05:51:08;;;;;;;5.40;2.97;;;22.80;93.70;;;;;;5047211;28;20060;-60
2022/07/20 05:53:33;;;;;;;7.18;3.33;;;22.90;94.10;;;;;;5048334;28;20041;-60
2022/07/20 05:55:59;;;;;;;5.45;2.90;;;23.00;94.40;;;;;;5047847;28;20067;-60
2022/07/20 05:58:25;;;;;;;7.30;3.53;;;23.00;94.60;;;;;;5047624;28;20119;-60
2022/07/20 06:00:50;;;;;;;6.85;3.28;;;23.00;95.10;;;;;;5048273;28;20040;-60
2022/07/20 06:03:16;;;;;;;6.32;3.80;;;23.10;94.90;;;;;;5047966;28;20454;-61
2022/07/20 06:05:41;;;;;;;7.95;3.45;;;23.20;95.30;;;;;;5047033;28;20052;-61
2022/07/20 06:08:07;;;;;;;6.50;3.20;;;23.20;95.50;;;;;;5047786;28;20353;-61
2022/07/20 06:10:36;;;;;;;5.15;3.30;;;23.30;95.70;;;;;;5048115;28;20484;-61
2022/07/20 06:13:03;;;;;;;8.27;3.25;;;23.30;96.40;;;;;;5046774;28;20375;-61
2022/07/20 06:15:29;;;;;;;4.75;3.35;;;23.40;97.20;;;;;;5048207;28;20128;-61
2022/07/20 06:17:55;;;;;;;4.85;3.40;;;23.50;97.50;;;;;;5046375;28;20120;-61
2022/07/20 06:20:21;;;;;;;6.50;3.08;;;23.60;97.60;;;;;;5047795;28;20048;-61
2022/07/20 06:22:47;;;;;;;4.43;3.10;;;23.60;97.60;;;;;;5047579;28;20083;-61
2022/07/20 06:25:14;;;;;;;5.63;3.22;;;23.70;97.60;;;;;;5047165;28;20572;-61
2022/07/20 06:27:40;;;;;;;6.28;2.90;;;23.90;97.40;;;;;;5047682;28;20041;-61
2022/07/20 06:30:08;;;;;;;3.85;3.25;;;24.00;97.20;;;;;;5047517;28;20044;-61
2022/07/20 06:32:33;;;;;;;13.43;3.55;;;24.10;96.10;;;;;;5046565;28;20522;-61
2022/07/20 06:34:59;;;;;;;5.40;2.92;;;24.30;94.40;;;;;;5047276;28;20057;-61
2022/07/20 06:37:25;;;;;;;6.15;3.28;;;24.40;93.40;;;;;;5047445;28;20065;-61
2022/07/20 06:39:50;;;;;;;5.75;3.15;;;24.60;92.30;;;;;;5046754;28;20053;-61
2022/07/20 06:42:17;;;;;;;7.47;3.30;;;24.70;90.40;;;;;;5047343;28;20492;-61
2022/07/20 06:44:43;;;;;;;6.68;3.42;;;24.90;87.20;;;;;;5047407;28;20084;-61
2022/07/20 06:47:09;;;;;;;4.88;3.35;;;25.00;84.80;;;;;;5046133;28;20041;-61
2022/07/20 06:49:35;;;;;;;6.55;3.78;;;25.10;82.80;;;;;;5047422;28;20044;-62
2022/07/20 06:52:01;;;;;;;4.07;3.40;;;25.10;82.30;;;;;;5046953;28;20098;-61
2022/07/20 06:54:26;;;;;;;7.18;3.97;;;25.20;82.30;;;;;;5046172;28;20415;-61
2022/07/20 06:56:53;;;;;;;7.55;3.60;;;25.20;81.80;;;;;;5047017;28;20152;-61
2022/07/20 06:59:19;;;;;;;4.05;3.63;;;25.30;81.40;;;;;;5046936;28;20056;-61
2022/07/20 07:01:44;;;;;;;6.22;3.72;;;25.30;81.20;;;;;;5046012;28;20052;-61
2022/07/20 07:04:10;;;;;;;4.82;3.88;;;25.30;81.00;;;;;;5046600;28;20094;-61
2022/07/20 07:06:36;;;;;;;5.70;3.92;;;25.40;81.20;;;;;;5046949;28;20399;-61
2022/07/20 07:09:01;;;;;;;4.13;3.60;;;25.50;81.80;;;;;;5045924;28;20037;-61
2022/07/20 07:11:27;;;;;;;6.88;3.90;;;25.50;81.90;;;;;;5046834;28;20080;-61
2022/07/20 07:13:53;;;;;;;5.18;4.55;;;25.50;81.60;;;;;;5047052;28;20048;-61
2022/07/20 07:16:18;;;;;;;8.13;4.57;;;25.60;81.60;;;;;;5045894;28;20044;-61
2022/07/20 07:18:44;;;;;;;7.43;3.65;;;25.60;82.70;;;;;;5046493;28;20358;-61
2022/07/20 07:21:10;;;;;;;4.82;4.30;;;25.70;82.30;;;;;;5046123;28;20431;-61
2022/07/20 07:23:36;;;;;;;7.07;4.82;;;25.70;83.70;;;;;;5046210;28;20500;-61
2022/07/20 07:26:02;;;;;;;9.00;4.13;;;25.80;83.80;;;;;;5046107;28;20049;-61
2022/07/20 07:28:28;;;;;;;10.55;5.15;;;25.80;84.30;;;;;;5045706;28;20041;-61
2022/07/20 07:30:53;;;;;;;8.68;4.78;;;25.90;85.70;;;;;;5045903;28;20037;-61
2022/07/20 07:33:25;;;;;;;10.02;5.43;;;26.00;87.90;;;;;;5046729;28;20041;-61
2022/07/20 07:35:51;;;;;;;6.80;5.18;;;26.00;87.70;;;;;;5046137;28;20053;-61
2022/07/20 07:38:17;;;;;;;6.90;5.10;;;26.10;89.30;;;;;;5046533;28;20045;-61
2022/07/20 07:40:43;;;;;;;10.75;5.57;;;26.20;90.00;;;;;;5046341;28;20052;-61
2022/07/20 07:43:08;;;;;;;10.75;6.18;;;26.30;90.10;;;;;;5045404;28;20045;-61
2022/07/20 07:45:34;;;;;;;12.35;5.93;;;26.30;90.60;;;;;;5046136;28;20452;-61
2022/07/20 07:47:59;;;;;;;10.20;5.35;;;26.40;90.60;;;;;;5046192;28;20033;-61
2022/07/20 07:50:25;;;;;;;8.93;6.25;;;26.40;90.80;;;;;;5045379;28;20553;-61
2022/07/20 07:52:51;;;;;;;9.30;6.50;;;26.50;90.70;;;;;;5046712;28;20041;-61
2022/07/20 07:55:16;;;;;;;10.25;6.13;;;26.50;91.10;;;;;;5046328;28;20044;-61
2022/07/20 07:57:42;;;;;;;9.35;6.63;;;26.60;91.80;;;;;;5044358;28;20060;-61
2022/07/20 08:00:08;;;;;;;10.02;6.35;;;26.60;92.60;;;;;;5045812;28;20483;-61
2022/07/20 08:02:34;;;;;;;12.32;6.38;;;26.70;93.50;;;;;;5046401;28;20044;-62
2022/07/20 08:05:00;;;;;;;9.80;6.55;;;26.80;94.40;;;;;;5045199;28;20045;-61
2022/07/20 08:07:25;;;;;;;10.95;7.10;;;26.80;94.90;;;;;;5046325;28;20091;-61
2022/07/20 08:09:51;;;;;;;8.55;7.60;;;27.00;95.40;;;;;;5046054;28;20091;-61
2022/07/20 08:12:17;;;;;;;9.98;8.77;;;27.00;96.20;;;;;;5045721;28;20399;-61
2022/07/20 08:14:42;;;;;;;15.55;9.15;;;27.10;96.70;;;;;;5046082;28;20107;-61
2022/07/20 08:17:08;;;;;;;16.98;9.57;;;27.20;97.60;;;;;;5046024;28;20055;-61
2022/07/20 08:19:33;;;;;;;15.30;9.93;;;27.20;98.40;;;;;;5045621;28;20049;-61
2022/07/20 08:21:59;;;;;;;12.95;9.55;;;27.30;98.80;;;;;;5046055;28;20049;-61
2022/07/20 08:24:25;;;;;;;13.43;10.18;;;27.40;99.30;;;;;;5046081;28;20049;-61
2022/07/20 08:26:50;;;;;;;15.73;11.00;;;27.40;99.90;;;;;;5045798;28;20339;-61
2022/07/20 08:29:16;;;;;;;16.45;11.15;;;27.40;99.90;;;;;;5045917;28;20055;-61
2022/07/20 08:31:42;;;;;;;12.85;10.20;;;27.50;99.90;;;;;;5045223;28;20067;-61
2022/07/20 08:34:08;;;;;;;16.02;11.07;;;27.60;99.90;;;;;;5045870;28;20033;-61
2022/07/20 08:36:33;;;;;;;15.40;11.30;;;27.60;99.90;;;;;;5045819;28;20044;-61
2022/07/20 08:38:59;;;;;;;19.10;12.45;;;27.60;99.90;;;;;;5045032;28;20049;-61
2022/07/20 08:41:25;;;;;;;17.23;13.88;;;27.60;99.90;;;;;;5046509;28;20060;-61
2022/07/20 08:43:51;;;;;;;20.75;13.70;;;27.70;99.90;;;;;;5049656;28;20064;-61
2022/07/20 08:46:17;;;;;;;19.10;13.90;;;27.70;99.90;;;;;;5048862;28;20122;-61
2022/07/20 08:48:43;;;;;;;21.35;14.85;;;27.70;99.90;;;;;;5049646;28;20041;-61
2022/07/20 08:51:09;;;;;;;20.80;15.32;;;27.70;99.90;;;;;;5049184;28;20051;-61
2022/07/20 08:53:35;;;;;;;22.85;16.02;;;27.70;99.90;;;;;;5048937;28;20044;-61
2022/07/20 08:56:00;;;;;;;25.58;15.38;;;27.70;99.90;;;;;;5048745;28;20033;-61
2022/07/20 08:58:26;;;;;;;23.55;18.20;;;27.80;99.90;;;;;;5049163;28;20053;-61
2022/07/20 09:00:51;;;;;;;24.55;15.90;;;27.80;99.90;;;;;;5048689;28;20056;-61
2022/07/20 09:03:17;;;;;;;25.15;17.77;;;27.80;99.90;;;;;;5049278;28;20088;-61
2022/07/20 09:05:43;;;;;;;18.92;16.83;;;27.80;99.90;;;;;;5049061;28;20076;-61
2022/07/20 09:08:17;;;;;;;24.25;17.05;;;27.80;99.90;;;;;;5047930;28;20068;-61
2022/07/20 09:10:46;;;;;;;26.15;16.75;;;27.90;99.90;;;;;;5049493;28;20131;-61
2022/07/20 09:13:18;;;;;;;22.92;16.63;;;27.90;99.90;;;;;;5048795;28;20045;-61
2022/07/20 09:15:48;;;;;;;38.33;17.52;;;27.90;99.90;;;;;;5048120;28;20052;-61
2022/07/20 09:18:30;;;;;;;22.35;16.88;;;28.00;99.90;;;;;;5048804;28;20041;-61
2022/07/20 09:21:03;;;;;;;26.20;16.67;;;28.10;99.90;;;;;;5047849;28;20076;-61
2022/07/20 09:23:48;;;;;;;26.83;18.48;;;28.10;99.90;;;;;;5048567;28;20060;-61
2022/07/20 09:26:16;;;;;;;23.20;18.38;;;28.10;99.90;;;;;;5048901;28;20068;-61
2022/07/20 09:28:52;;;;;;;25.88;18.95;;;28.10;99.90;;;;;;5047752;28;20492;-61
2022/07/20 09:31:37;;;;;;;29.73;19.45;;;28.20;99.90;;;;;;5048591;28;20064;-61
2022/07/20 09:34:04;;;;;;;23.05;18.08;;;28.20;99.90;;;;;;5048139;28;20125;-61
2022/07/20 09:36:38;;;;;;;23.00;18.60;;;28.10;99.90;;;;;;5047727;28;20569;-61
2022/07/20 09:39:10;;;;;;;28.65;19.02;;;28.20;99.90;;;;;;5048398;28;20033;-61
2022/07/20 09:41:39;;;;;;;23.38;18.17;;;28.20;99.90;;;;;;5048274;28;20049;-61
2022/07/20 09:44:06;;;;;;;29.50;19.25;;;28.20;99.90;;;;;;5047235;28;20541;-61
2022/07/20 09:46:37;;;;;;;26.40;18.48;;;28.20;99.90;;;;;;5048289;28;20071;-61
2022/07/20 09:49:11;;;;;;;24.85;17.27;;;28.20;99.90;;;;;;5047606;28;20400;-61
2022/07/20 09:51:39;;;;;;;29.90;19.80;;;28.10;99.90;;;;;;5048435;28;20048;-61
2022/07/20 09:54:08;;;;;;;22.55;17.70;;;28.10;99.90;;;;;;5047067;28;20359;-61
2022/07/20 09:56:36;;;;;;;23.80;17.50;;;28.10;99.90;;;;;;5047006;28;20135;-61
2022/07/20 09:59:04;;;;;;;22.45;17.20;;;28.20;99.90;;;;;;5046743;28;20103;-61
2022/07/20 10:01:36;;;;;;;23.25;16.73;;;28.30;99.90;;;;;;5048152;28;20075;-61
2022/07/20 10:04:05;;;;;;;22.52;17.88;;;28.40;99.90;;;;;;5047163;28;20045;-61
2022/07/20 10:06:33;;;;;;;20.55;15.35;;;28.40;99.90;;;;;;5047878;28;20174;-61
2022/07/20 10:08:58;;;;;;;19.73;16.60;;;28.40;99.90;;;;;;5047604;28;20045;-61
2022/07/20 10:11:26;;;;;;;19.10;15.63;;;28.50;99.90;;;;;;5047676;28;20047;-61
2022/07/20 10:13:54;;;;;;;23.05;15.10;;;28.50;99.90;;;;;;5047978;28;20495;-61
2022/07/20 10:16:39;;;;;;;23.23;14.77;;;28.60;99.90;;;;;;5047146;28;20048;-61
2022/07/20 10:19:06;;;;;;;20.67;13.45;;;28.60;99.90;;;;;;5046756;28;20057;-61
2022/07/20 10:21:33;;;;;;;19.15;12.70;;;28.60;98.80;;;;;;5047538;28;20057;-61
2022/07/20 10:24:22;;;;;;;16.20;12.60;;;28.60;97.80;;;;;;5047103;28;20087;-61
2022/07/20 10:27:16;;;;;;;19.42;12.80;;;28.60;97.00;;;;;;5047364;28;20492;-61
2022/07/20 10:29:53;;;;;;;17.58;13.35;;;28.60;97.30;;;;;;5043393;28;20163;-61
2022/07/20 10:32:23;;;;;;;20.92;12.38;;;28.70;97.90;;;;;;5046677;28;20044;-61
2022/07/20 10:34:52;;;;;;;16.33;11.60;;;28.70;96.80;;;;;;5047420;28;20041;-61
2022/07/20 10:37:34;;;;;;;17.02;12.57;;;28.70;97.50;;;;;;5047483;28;20125;-61
2022/07/20 10:40:07;;;;;;;16.63;11.75;;;28.80;97.70;;;;;;5046571;28;20045;-61
2022/07/20 10:42:48;;;;;;;22.60;10.68;;;28.90;96.40;;;;;;5047124;28;20045;-61
2022/07/20 10:45:13;;;;;;;18.67;10.70;;;29.00;95.60;;;;;;5046838;28;20052;-61
2022/07/20 10:48:11;;;;;;;11.95;9.15;;;29.00;95.30;;;;;;5047237;28;20051;-61
2022/07/20 10:50:43;;;;;;;14.52;9.75;;;29.10;94.20;;;;;;5039438;28;20060;-61
2022/07/20 10:53:14;;;;;;;18.35;9.75;;;29.00;93.40;;;;;;5046217;28;20076;-61
2022/07/20 10:55:52;;;;;;;14.05;9.73;;;29.00;93.70;;;;;;5047124;28;20056;-61
2022/07/20 10:58:26;;;;;;;11.70;9.35;;;29.10;93.60;;;;;;5046922;28;20114;-61
2022/07/20 11:00:57;;;;;;;13.77;9.75;;;29.10;93.70;;;;;;5046442;28;20075;-61
2022/07/20 11:03:36;;;;;;;14.32;9.45;;;29.10;93.30;;;;;;5047468;28;20037;-61
2022/07/20 11:06:06;;;;;;;14.70;10.32;;;29.10;93.20;;;;;;5046604;28;20052;-61
2022/07/20 11:08:33;;;;;;;14.57;9.93;;;29.10;92.40;;;;;;5046448;28;20056;-61
2022/07/20 11:11:00;;;;;;;14.23;8.85;;;29.10;93.00;;;;;;5046512;28;20040;-61
2022/07/20 11:13:25;;;;;;;15.20;9.95;;;29.20;92.70;;;;;;5046133;28;20048;-61
2022/07/20 11:15:57;;;;;;;12.73;9.63;;;29.30;91.60;;;;;;5046999;28;20426;-61
2022/07/20 11:18:26;;;;;;;17.52;9.68;;;29.40;91.50;;;;;;5046871;28;20049;-61
2022/07/20 11:20:59;;;;;;;13.68;9.98;;;29.40;93.20;;;;;;5046271;28;20072;-61
2022/07/20 11:23:27;;;;;;;17.67;10.25;;;29.50;91.70;;;;;;5047226;28;20098;-61
2022/07/20 11:25:57;;;;;;;15.02;10.45;;;29.50;90.90;;;;;;5046765;28;20104;-61
2022/07/20 11:28:32;;;;;;;11.52;9.73;;;29.50;90.90;;;;;;5046091;28;20041;-61
2022/07/20 11:30:59;;;;;;;14.15;9.85;;;29.50;90.20;;;;;;5046484;28;20040;-61
2022/07/20 11:33:31;;;;;;;13.25;10.70;;;29.60;90.50;;;;;;5047104;28;20041;-61
2022/07/20 11:36:03;;;;;;;10.98;9.20;;;29.70;90.30;;;;;;5045535;28;20561;-61
2022/07/20 11:38:41;;;;;;;14.20;9.75;;;29.70;91.00;;;;;;5046234;28;20041;-61
2022/07/20 11:41:12;;;;;;;12.07;8.88;;;29.80;90.40;;;;;;5045985;28;20531;-61
2022/07/20 11:43:38;;;;;;;11.23;8.77;;;29.80;90.20;;;;;;5045947;28;20041;-61
2022/07/20 11:46:38;;;;;;;10.48;8.68;;;29.80;90.00;;;;;;5046255;28;20033;-61
2022/07/20 11:49:06;;;;;;;9.43;7.47;;;29.90;88.50;;;;;;5044932;28;20146;-61
2022/07/20 11:51:35;;;;;;;16.77;8.88;;;29.90;87.10;;;;;;5046116;28;20049;-61
2022/07/20 11:54:02;;;;;;;10.93;8.35;;;29.90;86.00;;;;;;5046261;28;20088;-61
2022/07/20 11:56:29;;;;;;;14.07;8.73;;;30.00;86.40;;;;;;5045423;28;20057;-61
2022/07/20 11:58:58;;;;;;;10.95;7.85;;;30.00;86.40;;;;;;5046218;28;20049;-61
2022/07/20 12:01:32;;;;;;;14.55;8.45;;;30.00;87.40;;;;;;5046737;28;20047;-61
2022/07/20 12:04:06;;;;;;;11.98;7.57;;;29.90;82.10;;;;;;5045192;28;20127;-61
2022/07/20 12:06:34;;;;;;;10.00;7.07;;;29.70;83.80;;;;;;5046191;28;20385;-61
2022/07/20 12:09:09;;;;;;;8.85;6.95;;;29.80;83.90;;;;;;5046157;28;20044;-61
2022/07/20 12:11:36;;;;;;;14.13;8.38;;;29.80;83.00;;;;;;5044437;28;20071;-61
2022/07/20 12:14:02;;;;;;;11.07;7.75;;;29.80;83.60;;;;;;5045639;28;20049;-61
2022/07/20 12:16:45;;;;;;;10.60;6.82;;;29.90;83.80;;;;;;5046730;28;20324;-61
2022/07/20 12:19:11;;;;;;;11.98;6.68;;;30.00;81.00;;;;;;5050196;28;20045;-61
2022/07/20 12:21:43;;;;;;;11.60;6.68;;;30.10;82.40;;;;;;5049945;28;20555;-61
2022/07/20 12:24:09;;;;;;;10.40;7.45;;;30.20;83.00;;;;;;5048863;28;20049;-61
2022/07/20 12:26:35;;;;;;;10.68;7.78;;;30.20;82.30;;;;;;5049827;28;20059;-61
2022/07/20 12:29:28;;;;;;;11.30;7.07;;;30.30;81.50;;;;;;5049529;28;20605;-61
2022/07/20 12:32:02;;;;;;;11.55;7.55;;;30.30;78.80;;;;;;5048203;28;20047;-61
2022/07/20 12:34:29;;;;;;;14.27;8.57;;;30.40;76.80;;;;;;5049628;28;20040;-61
2022/07/20 12:36:54;;;;;;;12.60;10.23;;;30.40;75.50;;;;;;5049342;28;20041;-61
2022/07/20 12:39:40;;;;;;;13.65;9.40;;;30.40;74.60;;;;;;5047936;28;20048;-61
2022/07/20 12:42:22;;;;;;;13.63;9.68;;;30.30;74.10;;;;;;5049471;28;20131;-61
2022/07/20 12:44:56;;;;;;;;;;;30.40;73.70;;;;;;5049403;28;20468;-61